Time;durP1;ratioP1;P1;durP2;ratioP2;P2;SDS_P1;SDS_P2;PMS_P1;PMS_P2;Temp;Humidity;BMP_temperature;BMP_pressure;BME280_temperature;BME280_humidity;BME280_pressure;Samples;Min_cycle;Max_cycle;Signal;HPM_P1;HPM_P2
2024/01/18 00:01:16;;;;;;;31.83;19.10;;;1.00;99.90;;;;;;4975044;28;20307;-85
2024/01/18 00:03:44;;;;;;;30.42;18.48;;;1.10;1.00;;;;;;4978373;28;20193;-85
2024/01/18 00:06:14;;;;;;;33.17;17.70;;;1.10;99.90;;;;;;4991081;28;20244;-86
2024/01/18 00:08:46;;;;;;;27.10;17.10;;;1.20;99.90;;;;;;4985961;28;20193;-86
2024/01/18 00:11:20;;;;;;;32.65;17.55;;;1.20;99.90;;;;;;4975445;28;20263;-86
2024/01/18 00:13:48;;;;;;;29.98;17.40;;;1.20;7.10;;;;;;4967760;28;20197;-87
2024/01/18 00:16:25;;;;;;;28.85;16.20;;;1.20;1.00;;;;;;4963888;28;20186;-86
2024/01/18 00:18:52;;;;;;;33.45;15.95;;;1.20;99.90;;;;;;4967789;28;20193;-87
2024/01/18 00:21:24;;;;;;;25.17;16.45;;;1.20;99.90;;;;;;4977639;28;20213;-86
2024/01/18 00:23:53;;;;;;;24.85;16.35;;;1.20;99.90;;;;;;4974815;28;20179;-87
2024/01/18 00:26:23;;;;;;;25.20;14.75;;;1.20;99.90;;;;;;4940778;29;20183;-86
2024/01/18 00:29:13;;;;;;;28.90;15.68;;;1.20;38.10;;;;;;4963175;28;20606;-86
2024/01/18 00:31:52;;;;;;;24.30;15.25;;;1.20;17.10;;;;;;4970099;28;20196;-86
2024/01/18 00:34:20;;;;;;;29.33;15.00;;;1.20;99.90;;;;;;4969245;28;20204;-86
2024/01/18 00:36:54;;;;;;;29.30;15.40;;;1.20;89.40;;;;;;4974055;28;20205;-85
2024/01/18 00:39:23;;;;;;;26.60;16.13;;;1.30;1.00;;;;;;4949638;28;20192;-86
2024/01/18 00:41:53;;;;;;;28.05;15.80;;;1.30;1.00;;;;;;4977585;28;20204;-87
2024/01/18 00:44:24;;;;;;;22.98;15.52;;;1.30;1.00;;;;;;4968880;28;20235;-86
2024/01/18 00:46:53;;;;;;;24.25;15.02;;;1.30;99.90;;;;;;4957943;28;20213;-87
2024/01/18 00:49:23;;;;;;;24.58;15.05;;;1.30;1.00;;;;;;4972324;28;20260;-83
2024/01/18 00:51:50;;;;;;;26.67;15.40;;;1.30;1.00;;;;;;4969455;28;20188;-87
2024/01/18 00:54:19;;;;;;;25.50;16.00;;;1.20;1.00;;;;;;4977292;28;20256;-87
2024/01/18 00:56:49;;;;;;;24.30;15.10;;;1.20;1.00;;;;;;4969541;28;20270;-86
2024/01/18 00:59:25;;;;;;;28.38;16.25;;;1.20;67.30;;;;;;4975760;28;20196;-86
2024/01/18 01:01:54;;;;;;;26.13;15.43;;;1.30;1.00;;;;;;4960264;28;20211;-86
2024/01/18 01:04:21;;;;;;;27.10;15.80;;;1.30;1.00;;;;;;4959011;28;20191;-87
2024/01/18 01:06:51;;;;;;;29.45;15.23;;;1.30;1.00;;;;;;4973377;28;20185;-86
2024/01/18 01:09:28;;;;;;;27.52;14.80;;;1.30;52.00;;;;;;4962734;28;20201;-88
2024/01/18 01:11:57;;;;;;;20.67;14.18;;;1.40;91.40;;;;;;4968775;28;20231;-87
2024/01/18 01:14:28;;;;;;;21.92;15.60;;;1.30;99.90;;;;;;4978117;28;20185;-87
2024/01/18 01:16:54;;;;;;;28.58;14.23;;;1.20;42.40;;;;;;4960343;28;20201;-87
2024/01/18 01:19:25;;;;;;;26.67;14.85;;;1.20;99.90;;;;;;4978023;28;20211;-86
2024/01/18 01:21:53;;;;;;;29.15;15.40;;;1.10;1.00;;;;;;4977520;28;20197;-87
2024/01/18 01:24:23;;;;;;;30.75;16.38;;;1.20;1.00;;;;;;4945587;28;20193;-86
2024/01/18 01:26:51;;;;;;;27.75;16.15;;;1.20;1.00;;;;;;4972943;28;20189;-87
2024/01/18 01:29:23;;;;;;;25.92;15.48;;;1.20;1.00;;;;;;4975462;28;20192;-86
2024/01/18 01:31:52;;;;;;;31.95;17.23;;;1.20;1.00;;;;;;4978095;28;20193;-87
2024/01/18 01:34:20;;;;;;;28.45;16.75;;;1.20;1.00;;;;;;4978438;28;20244;-87
2024/01/18 01:36:53;;;;;;;28.73;17.45;;;1.20;1.00;;;;;;4975317;28;20193;-87
2024/01/18 01:39:24;;;;;;;26.38;16.67;;;1.30;18.60;;;;;;4969945;28;20228;-86
2024/01/18 01:41:54;;;;;;;32.60;17.45;;;1.30;1.00;;;;;;4974023;28;20266;-87
2024/01/18 01:44:30;;;;;;;28.83;16.45;;;1.30;1.00;;;;;;4980928;28;20189;-88
2024/01/18 01:47:07;;;;;;;25.88;15.48;;;1.30;1.00;;;;;;4980793;28;20321;-87
2024/01/18 01:49:35;;;;;;;25.63;16.55;;;1.30;1.00;;;;;;4981423;28;20188;-87
2024/01/18 01:52:05;;;;;;;23.83;15.73;;;1.20;1.00;;;;;;4956259;28;20205;-87
2024/01/18 01:54:32;;;;;;;30.27;17.83;;;1.20;1.00;;;;;;4976866;28;20213;-87
2024/01/18 01:57:05;;;;;;;28.98;17.13;;;1.20;31.10;;;;;;4978531;28;20204;-87
2024/01/18 02:00:08;;;;;;;29.67;16.60;;;1.30;1.00;;;;;;4985867;28;20231;-86
2024/01/18 02:02:48;;;;;;;28.23;17.48;;;1.30;1.00;;;;;;4975483;28;20204;-88
2024/01/18 02:05:15;;;;;;;27.25;16.88;;;1.20;1.00;;;;;;4954135;28;20235;-86
2024/01/18 02:07:52;;;;;;;28.75;17.05;;;1.20;1.00;;;;;;4976231;28;20177;-87
2024/01/18 02:10:21;;;;;;;33.10;16.90;;;1.20;1.00;;;;;;4979569;28;20213;-87
2024/01/18 02:12:55;;;;;;;35.10;16.92;;;1.20;1.00;;;;;;4979932;28;20259;-87
2024/01/18 02:15:31;;;;;;;26.05;15.30;;;1.20;1.00;;;;;;4975738;28;20220;-87
2024/01/18 02:18:02;;;;;;;29.75;17.08;;;1.20;1.00;;;;;;4978888;28;20188;-87
2024/01/18 02:20:35;;;;;;;30.77;16.05;;;1.20;1.00;;;;;;4980399;28;20287;-86
2024/01/18 02:23:06;;;;;;;26.38;16.85;;;1.20;1.00;;;;;;4979844;28;20674;-85
2024/01/18 02:25:50;;;;;;;32.58;16.42;;;1.20;1.00;;;;;;4979993;28;20324;-87
2024/01/18 02:28:17;;;;;;;28.25;16.80;;;1.20;1.00;;;;;;4976696;28;20228;-87
2024/01/18 02:30:46;;;;;;;24.15;15.25;;;1.20;9.60;;;;;;4979530;28;20209;-87
2024/01/18 02:33:20;;;;;;;23.75;15.95;;;1.20;1.00;;;;;;4945865;28;20231;-87
2024/01/18 02:35:50;;;;;;;38.60;17.02;;;1.20;1.00;;;;;;4967428;28;20679;-87
2024/01/18 02:38:18;;;;;;;34.25;16.92;;;1.20;1.00;;;;;;4974382;28;20189;-87
2024/01/18 02:40:50;;;;;;;30.85;17.35;;;1.20;1.00;;;;;;4978882;28;20229;-87
2024/01/18 02:43:25;;;;;;;33.28;18.52;;;1.20;99.90;;;;;;4968126;28;20208;-87
2024/01/18 02:45:58;;;;;;;31.40;18.35;;;1.20;99.90;;;;;;4971258;28;20588;-87
2024/01/18 02:48:27;;;;;;;29.60;18.20;;;1.20;99.90;;;;;;4980291;28;20678;-86
2024/01/18 02:50:57;;;;;;;31.88;17.50;;;1.20;99.90;;;;;;4969609;28;20209;-87
2024/01/18 02:53:23;;;;;;;25.73;16.83;;;1.20;99.90;;;;;;4966827;28;20189;-85
2024/01/18 02:55:49;;;;;;;29.13;16.47;;;1.20;1.00;;;;;;4972723;28;20183;-87
2024/01/18 02:58:17;;;;;;;22.35;16.40;;;1.20;1.00;;;;;;4982865;28;20930;-87
2024/01/18 03:00:49;;;;;;;38.33;18.83;;;1.20;99.90;;;;;;4967826;28;20205;-87
2024/01/18 03:03:16;;;;;;;31.13;16.02;;;1.20;99.90;;;;;;4977864;28;20203;-87
2024/01/18 03:05:43;;;;;;;23.80;15.38;;;1.20;1.00;;;;;;4982399;28;20189;-85
2024/01/18 03:08:09;;;;;;;29.73;17.38;;;1.20;1.00;;;;;;4967853;28;20279;-86
2024/01/18 03:10:36;;;;;;;29.35;18.50;;;1.20;99.90;;;;;;4982286;28;20219;-86
2024/01/18 03:13:02;;;;;;;32.65;19.42;;;1.10;1.00;;;;;;4980446;28;20189;-86
2024/01/18 03:15:29;;;;;;;29.08;19.60;;;1.10;1.00;;;;;;4975936;28;20192;-86
2024/01/18 03:17:59;;;;;;;30.35;19.10;;;1.10;50.90;;;;;;4992076;28;20212;-86
2024/01/18 03:20:28;;;;;;;29.92;19.10;;;1.00;99.90;;;;;;4981719;28;20279;-86
2024/01/18 03:22:54;;;;;;;35.00;19.88;;;1.00;99.90;;;;;;4982899;28;20216;-87
2024/01/18 03:25:22;;;;;;;29.98;19.35;;;1.00;1.00;;;;;;4974777;28;20176;-86
2024/01/18 03:27:48;;;;;;;31.00;18.33;;;1.00;1.00;;;;;;4983832;28;20176;-86
2024/01/18 03:30:16;;;;;;;30.05;19.08;;;1.00;1.00;;;;;;4987036;28;20296;-87
2024/01/18 03:32:44;;;;;;;29.73;18.95;;;1.10;1.00;;;;;;4965830;28;20205;-86
2024/01/18 03:35:10;;;;;;;38.78;19.08;;;1.10;1.00;;;;;;4970529;28;20218;-87
2024/01/18 03:37:40;;;;;;;36.85;21.42;;;1.10;1.00;;;;;;4972056;28;20280;-86
2024/01/18 03:40:10;;;;;;;31.80;17.77;;;1.00;1.00;;;;;;4958488;28;20591;-87
2024/01/18 03:42:43;;;;;;;27.00;18.25;;;1.10;1.00;;;;;;4979373;28;20212;-87
2024/01/18 03:45:11;;;;;;;29.38;18.50;;;1.10;1.00;;;;;;4978446;28;20177;-87
2024/01/18 03:47:41;;;;;;;45.05;20.42;;;1.10;1.00;;;;;;4980309;28;20185;-88
2024/01/18 03:50:12;;;;;;;30.88;18.58;;;1.10;1.00;;;;;;4980943;28;20209;-88
2024/01/18 03:52:39;;;;;;;34.25;18.95;;;1.10;1.00;;;;;;4987832;28;20191;-88
2024/01/18 03:55:09;;;;;;;28.00;18.00;;;1.10;1.00;;;;;;4963958;28;20603;-86
2024/01/18 03:57:36;;;;;;;31.00;19.70;;;1.20;1.00;;;;;;4976228;28;20689;-86
2024/01/18 04:00:05;;;;;;;30.33;18.55;;;1.20;1.00;;;;;;4975103;28;20695;-86
2024/01/18 04:02:31;;;;;;;34.78;19.58;;;1.20;1.00;;;;;;4978504;28;20588;-86
2024/01/18 04:05:05;;;;;;;28.08;17.67;;;1.30;1.00;;;;;;4979804;28;20181;-86
2024/01/18 04:07:49;;;;;;;29.83;19.70;;;1.30;1.00;;;;;;4979951;28;20177;-87
2024/01/18 04:10:18;;;;;;;27.23;19.75;;;1.40;1.00;;;;;;4980158;28;20221;-87
2024/01/18 04:12:45;;;;;;;34.20;17.90;;;1.40;1.00;;;;;;5013694;23;20204;-87
2024/01/18 04:15:11;;;;;;;28.07;16.53;;;1.40;99.90;;;;;;5026873;28;20565;-88
2024/01/18 04:17:37;;;;;;;30.43;18.63;;;1.40;81.20;;;;;;5015389;28;20179;-87
2024/01/18 04:20:06;;;;;;;30.48;18.42;;;1.40;1.00;;;;;;5019230;28;20178;-87
2024/01/18 04:22:33;;;;;;;27.42;17.75;;;1.40;1.00;;;;;;5023245;28;20689;-87
2024/01/18 04:24:58;;;;;;;28.48;18.05;;;1.40;1.00;;;;;;5012010;28;20229;-87
2024/01/18 04:27:24;;;;;;;30.53;17.90;;;1.40;1.00;;;;;;5014901;28;20186;-87
2024/01/18 04:29:49;;;;;;;31.70;17.30;;;1.40;1.00;;;;;;5014652;28;20194;-85
2024/01/18 04:32:15;;;;;;;26.10;18.07;;;1.40;1.00;;;;;;5015030;28;20245;-84
2024/01/18 04:34:42;;;;;;;28.60;18.03;;;1.40;1.00;;;;;;5016850;28;20179;-85
2024/01/18 04:37:08;;;;;;;34.30;17.50;;;1.30;1.00;;;;;;5016878;28;20245;-85
2024/01/18 04:39:33;;;;;;;30.30;18.30;;;1.30;1.00;;;;;;5015943;28;20187;-85
2024/01/18 04:41:59;;;;;;;33.47;19.10;;;1.30;1.00;;;;;;5014355;28;20270;-84
2024/01/18 04:44:24;;;;;;;28.40;16.73;;;1.30;1.00;;;;;;5016111;28;20209;-85
2024/01/18 04:46:50;;;;;;;29.50;17.97;;;1.30;1.00;;;;;;5009324;28;20254;-84
2024/01/18 04:49:15;;;;;;;31.13;16.63;;;1.30;1.00;;;;;;5015844;28;20214;-84
2024/01/18 04:51:41;;;;;;;25.70;17.33;;;1.30;1.00;;;;;;5015535;28;20183;-84
2024/01/18 04:54:06;;;;;;;35.67;18.07;;;1.30;94.00;;;;;;5014779;28;20215;-86
2024/01/18 04:56:35;;;;;;;25.43;16.23;;;1.30;99.90;;;;;;5014402;28;20327;-85
2024/01/18 04:59:01;;;;;;;31.80;18.58;;;1.30;99.90;;;;;;5015155;28;20187;-84
2024/01/18 05:01:26;;;;;;;31.15;17.83;;;1.30;99.90;;;;;;5014859;28;20679;-84
2024/01/18 05:03:52;;;;;;;25.93;16.70;;;1.30;96.60;;;;;;5010947;28;20217;-87
2024/01/18 05:06:17;;;;;;;29.07;17.27;;;1.30;99.90;;;;;;5009663;28;20312;-85
2024/01/18 05:08:44;;;;;;;27.20;18.57;;;1.30;99.90;;;;;;5002938;28;20213;-86
2024/01/18 05:11:10;;;;;;;29.80;18.42;;;1.30;99.90;;;;;;4998113;28;20192;-85
2024/01/18 05:13:35;;;;;;;27.70;18.00;;;1.40;99.90;;;;;;5009372;28;20245;-87
2024/01/18 05:16:01;;;;;;;32.80;18.80;;;1.40;99.90;;;;;;5006892;28;20200;-84
2024/01/18 05:18:27;;;;;;;32.43;17.63;;;1.40;50.80;;;;;;5010075;28;20208;-84
2024/01/18 05:20:52;;;;;;;32.40;18.43;;;1.30;1.00;;;;;;5011803;28;20437;-88
2024/01/18 05:23:18;;;;;;;29.87;18.77;;;1.30;99.90;;;;;;5013291;28;20215;-88
2024/01/18 05:25:43;;;;;;;32.50;19.70;;;1.30;99.90;;;;;;5015765;28;20190;-87
2024/01/18 05:28:09;;;;;;;28.90;19.53;;;1.30;99.90;;;;;;5016088;28;20650;-87
2024/01/18 05:30:35;;;;;;;38.80;18.70;;;1.30;99.90;;;;;;5015743;28;20625;-87
2024/01/18 05:33:00;;;;;;;29.37;18.60;;;1.30;99.90;;;;;;5014997;28;20796;-89
2024/01/18 05:35:26;;;;;;;29.60;17.80;;;1.30;99.90;;;;;;5012939;28;20183;-87
2024/01/18 05:37:51;;;;;;;43.43;18.37;;;1.30;99.90;;;;;;5016891;28;20194;-87
2024/01/18 05:40:21;;;;;;;29.57;18.70;;;1.20;99.90;;;;;;5018188;28;20676;-88
2024/01/18 05:42:46;;;;;;;33.72;19.27;;;1.20;99.90;;;;;;5020521;28;20235;-87
2024/01/18 05:45:12;;;;;;;34.63;18.10;;;1.20;99.90;;;;;;5018166;28;20196;-87
2024/01/18 05:47:39;;;;;;;31.80;17.50;;;1.20;99.90;;;;;;5015189;28;20203;-87
2024/01/18 05:50:06;;;;;;;30.70;18.58;;;1.20;99.90;;;;;;5018989;28;20168;-87
2024/01/18 05:52:31;;;;;;;26.90;16.92;;;1.20;99.90;;;;;;5018125;28;20277;-88
2024/01/18 05:54:58;;;;;;;29.93;16.33;;;1.20;99.90;;;;;;5016973;28;20175;-87
2024/01/18 05:57:24;;;;;;;26.77;16.45;;;1.20;99.90;;;;;;5019015;28;20191;-87
2024/01/18 05:59:50;;;;;;;32.67;17.60;;;1.10;99.90;;;;;;5013196;28;20219;-88
2024/01/18 06:02:15;;;;;;;31.53;17.93;;;1.10;99.90;;;;;;5017901;28;20516;-87
2024/01/18 06:04:41;;;;;;;30.67;18.73;;;1.10;99.90;;;;;;5017173;28;20274;-87
2024/01/18 06:07:06;;;;;;;32.57;18.23;;;1.00;99.90;;;;;;5019037;28;20179;-87
2024/01/18 06:09:32;;;;;;;32.43;18.03;;;1.00;99.90;;;;;;5009816;28;20237;-87
2024/01/18 06:11:57;;;;;;;29.87;18.20;;;0.90;99.90;;;;;;5014546;28;20211;-87
2024/01/18 06:14:23;;;;;;;30.87;18.73;;;0.90;1.00;;;;;;5016058;28;20653;-87
2024/01/18 06:16:48;;;;;;;29.40;18.47;;;0.90;1.00;;;;;;5013925;28;20241;-85
2024/01/18 06:19:14;;;;;;;31.47;18.23;;;0.90;1.00;;;;;;5015023;28;20245;-87
2024/01/18 06:21:41;;;;;;;32.63;18.13;;;0.80;1.00;;;;;;5016711;28;20253;-87
2024/01/18 06:24:07;;;;;;;33.28;19.00;;;0.80;1.00;;;;;;5013480;28;20555;-87
2024/01/18 06:26:33;;;;;;;27.88;17.58;;;0.80;1.00;;;;;;5015001;28;20183;-87
2024/01/18 06:28:58;;;;;;;39.27;19.00;;;0.80;99.90;;;;;;5014934;28;20179;-87
2024/01/18 06:31:26;;;;;;;33.47;19.60;;;0.80;99.90;;;;;;5014123;28;20191;-87
2024/01/18 06:33:53;;;;;;;37.13;18.35;;;0.80;99.90;;;;;;5014426;28;20223;-88
2024/01/18 06:36:18;;;;;;;34.60;19.23;;;0.80;99.90;;;;;;5011023;28;20708;-87
2024/01/18 06:38:45;;;;;;;26.10;18.83;;;0.80;99.90;;;;;;5008424;28;20251;-87
2024/01/18 06:41:11;;;;;;;28.05;17.35;;;0.70;99.90;;;;;;5006603;28;20290;-87
2024/01/18 06:43:37;;;;;;;32.58;19.65;;;0.70;99.90;;;;;;5002933;28;20228;-87
2024/01/18 06:46:03;;;;;;;33.87;18.00;;;0.70;99.90;;;;;;5003288;28;20564;-86
2024/01/18 06:48:28;;;;;;;30.93;18.20;;;0.70;99.90;;;;;;5007460;28;20187;-88
2024/01/18 06:50:54;;;;;;;33.57;18.20;;;0.70;99.90;;;;;;5011104;28;20176;-86
2024/01/18 06:53:19;;;;;;;40.20;20.50;;;0.70;99.90;;;;;;5015348;28;20229;-87
2024/01/18 06:55:45;;;;;;;33.93;19.90;;;0.70;99.90;;;;;;5014972;28;20190;-88
2024/01/18 06:58:11;;;;;;;35.80;18.20;;;0.70;99.90;;;;;;5018148;28;20270;-86
2024/01/18 07:00:36;;;;;;;36.07;19.73;;;0.70;99.90;;;;;;5018352;28;20791;-86
2024/01/18 07:03:02;;;;;;;28.47;17.97;;;0.70;99.90;;;;;;5019062;28;20228;-87
2024/01/18 07:05:28;;;;;;;31.10;21.00;;;0.70;1.00;;;;;;5011476;28;20179;-87
2024/01/18 07:07:54;;;;;;;34.70;19.53;;;0.60;1.00;;;;;;5019464;28;20533;-89
2024/01/18 07:10:20;;;;;;;30.25;19.40;;;0.50;1.00;;;;;;5017145;28;20282;-89
2024/01/18 07:12:46;;;;;;;34.72;20.83;;;0.50;1.00;;;;;;5014805;28;20206;-88
2024/01/18 07:15:12;;;;;;;32.90;19.93;;;0.40;1.00;;;;;;5010812;28;20191;-87
2024/01/18 07:17:37;;;;;;;37.67;19.83;;;0.30;1.00;;;;;;5016475;28;20195;-87
2024/01/18 07:20:04;;;;;;;34.33;20.97;;;0.30;1.00;;;;;;5014946;28;20190;-87
2024/01/18 07:22:30;;;;;;;33.53;20.67;;;0.20;1.00;;;;;;5015131;28;20238;-87
2024/01/18 07:25:13;;;;;;;33.17;20.88;;;0.20;31.60;;;;;;5009571;28;20191;-87
2024/01/18 07:27:39;;;;;;;32.30;20.08;;;0.10;91.80;;;;;;5011839;28;20185;-85
2024/01/18 07:30:06;;;;;;;35.77;19.23;;;0.10;99.90;;;;;;5016244;28;20211;-88
2024/01/18 07:32:33;;;;;;;34.63;18.90;;;0.10;99.90;;;;;;5016506;28;20179;-86
2024/01/18 07:35:00;;;;;;;32.22;18.55;;;0.20;99.90;;;;;;5012216;28;20164;-86
2024/01/18 07:37:25;;;;;;;35.90;19.70;;;0.20;99.90;;;;;;5011593;28;20326;-88
2024/01/18 07:39:51;;;;;;;27.47;19.40;;;0.20;99.90;;;;;;5009229;28;20242;-85
2024/01/18 07:42:17;;;;;;;38.90;20.75;;;0.20;99.90;;;;;;5013728;28;20234;-86
2024/01/18 07:44:44;;;;;;;32.60;19.83;;;0.30;99.90;;;;;;5012570;28;20183;-86
2024/01/18 07:47:10;;;;;;;36.90;21.08;;;0.30;35.60;;;;;;5014036;28;20430;-87
2024/01/18 07:49:36;;;;;;;33.90;20.07;;;0.30;1.00;;;;;;5013388;28;20183;-86
2024/01/18 07:52:02;;;;;;;35.55;20.27;;;0.20;1.00;;;;;;5011519;28;20258;-86
2024/01/18 07:54:27;;;;;;;27.67;20.33;;;0.20;99.90;;;;;;5005944;28;20613;-85
2024/01/18 07:56:53;;;;;;;35.37;21.17;;;0.20;88.90;;;;;;5011216;28;20179;-86
2024/01/18 07:59:20;;;;;;;29.67;20.00;;;0.10;1.00;;;;;;5015196;28;20183;-86
2024/01/18 08:01:45;;;;;;;31.70;18.35;;;0.10;1.00;;;;;;5003543;28;20274;-86
2024/01/18 08:04:11;;;;;;;28.00;17.87;;;0.10;1.00;;;;;;5014282;28;20316;-86
2024/01/18 08:06:36;;;;;;;31.80;18.87;;;0.10;1.00;;;;;;5014415;28;20184;-86
2024/01/18 08:09:02;;;;;;;33.53;20.30;;;0.10;1.00;;;;;;5014308;28;20215;-85
2024/01/18 08:11:28;;;;;;;30.00;19.33;;;0.10;1.00;;;;;;5014535;28;20205;-86
2024/01/18 08:13:53;;;;;;;39.88;22.25;;;0.10;1.00;;;;;;5011392;28;20256;-89
2024/01/18 08:16:19;;;;;;;33.13;19.70;;;0.10;1.00;;;;;;5013114;28;20222;-86
2024/01/18 08:18:46;;;;;;;34.83;19.97;;;0.10;1.00;;;;;;5013973;28;20243;-86
2024/01/18 08:21:12;;;;;;;31.75;19.52;;;0.10;1.00;;;;;;5013708;28;20235;-86
2024/01/18 08:23:37;;;;;;;28.60;19.27;;;0.20;99.90;;;;;;5013850;28;20234;-86
2024/01/18 08:26:03;;;;;;;38.73;20.33;;;0.20;99.90;;;;;;5012929;28;21738;-86
2024/01/18 08:28:28;;;;;;;35.73;20.87;;;0.30;1.00;;;;;;5018407;28;20665;-87
2024/01/18 08:30:54;;;;;;;29.30;19.70;;;0.60;1.00;;;;;;5014299;28;20203;-85
2024/01/18 08:33:20;;;;;;;35.53;21.43;;;1.30;99.90;;;;;;5016922;28;20211;-86
2024/01/18 08:35:45;;;;;;;28.27;18.83;;;2.30;1.00;;;;;;5031904;28;20179;-86
2024/01/18 08:38:11;;;;;;;31.83;18.50;;;3.80;1.00;;;;;;5007373;28;20187;-84
2024/01/18 08:40:36;;;;;;;32.73;21.53;;;5.60;99.90;;;;;;5014043;28;21015;-84
2024/01/18 08:43:02;;;;;;;35.10;23.27;;;6.90;1.00;;;;;;5013221;28;20296;-83
2024/01/18 08:45:29;;;;;;;32.63;24.33;;;8.10;1.00;;;;;;5013718;28;20172;-81
2024/01/18 08:47:54;;;;;;;32.17;23.27;;;9.30;1.00;;;;;;5012529;28;20190;-84
2024/01/18 08:50:22;;;;;;;27.70;20.80;;;10.30;99.90;;;;;;5013274;28;20848;-84
2024/01/18 08:52:51;;;;;;;27.00;19.77;;;11.20;99.90;;;;;;5015440;28;20214;-84
2024/01/18 08:55:17;;;;;;;26.00;19.13;;;12.20;99.90;;;;;;5012626;28;20442;-84
2024/01/18 08:57:42;;;;;;;25.30;20.53;;;12.80;99.90;;;;;;5015183;28;20972;-83
2024/01/18 09:00:08;;;;;;;29.00;21.10;;;12.90;99.90;;;;;;5006683;28;20435;-84
2024/01/18 09:02:34;;;;;;;34.53;23.83;;;13.50;99.90;;;;;;5012688;28;20210;-84
2024/01/18 09:04:59;;;;;;;31.60;23.30;;;14.00;99.90;;;;;;5016516;28;20438;-83
2024/01/18 09:07:25;;;;;;;32.70;24.17;;;14.00;99.90;;;;;;5016239;28;20198;-83
2024/01/18 09:09:50;;;;;;;28.27;22.80;;;14.00;99.90;;;;;;5009214;28;20192;-84
2024/01/18 09:12:16;;;;;;;28.77;22.90;;;14.10;99.90;;;;;;5021990;28;20673;-85
2024/01/18 09:14:44;;;;;;;24.00;21.27;;;13.70;99.90;;;;;;5018684;28;20198;-83
2024/01/18 09:17:10;;;;;;;29.57;23.23;;;13.20;99.90;;;;;;5015617;28;20593;-83
2024/01/18 09:19:35;;;;;;;25.30;21.47;;;12.40;99.90;;;;;;5016011;28;20471;-83
2024/01/18 09:22:01;;;;;;;30.50;22.53;;;11.50;99.90;;;;;;5013734;28;20297;-82
2024/01/18 09:24:27;;;;;;;26.80;21.77;;;10.80;99.90;;;;;;5012372;28;20211;-82
2024/01/18 09:26:52;;;;;;;28.23;21.30;;;10.10;99.90;;;;;;5013807;28;20445;-83
2024/01/18 09:29:18;;;;;;;25.27;21.10;;;9.40;99.90;;;;;;5017120;28;20202;-84
2024/01/18 09:31:43;;;;;;;30.53;22.60;;;8.80;99.90;;;;;;5016704;28;20298;-83
2024/01/18 09:34:10;;;;;;;29.30;20.77;;;8.20;99.90;;;;;;5015847;28;20294;-83
2024/01/18 09:36:40;;;;;;;33.20;21.87;;;7.70;99.90;;;;;;5016919;28;20700;-81
2024/01/18 09:39:15;;;;;;;33.60;21.80;;;7.30;99.90;;;;;;5015840;28;20418;-82
2024/01/18 09:41:42;;;;;;;32.57;22.10;;;6.90;99.90;;;;;;5010390;28;20461;-83
2024/01/18 09:44:12;;;;;;;28.83;22.33;;;6.60;99.90;;;;;;5015238;28;20465;-83
2024/01/18 09:46:38;;;;;;;28.73;23.37;;;6.40;99.90;;;;;;5014263;28;20183;-85
2024/01/18 09:49:07;;;;;;;29.00;22.10;;;6.20;99.90;;;;;;5014720;28;20479;-83
2024/01/18 09:51:33;;;;;;;31.75;25.27;;;6.10;99.90;;;;;;5015465;28;20262;-83
2024/01/18 09:54:00;;;;;;;34.43;24.70;;;6.00;99.90;;;;;;5015896;28;20241;-82
2024/01/18 09:56:30;;;;;;;37.10;24.27;;;5.80;99.90;;;;;;5013553;28;20512;-83
2024/01/18 09:58:58;;;;;;;40.78;27.23;;;5.70;99.90;;;;;;5014088;28;20175;-83
2024/01/18 10:01:24;;;;;;;38.20;24.33;;;5.60;99.90;;;;;;5022814;28;20276;-83
2024/01/18 10:03:50;;;;;;;32.17;21.98;;;5.60;99.90;;;;;;5022782;28;20199;-84
2024/01/18 10:06:17;;;;;;;29.40;22.42;;;5.50;99.90;;;;;;5021336;28;20250;-84
2024/01/18 10:08:44;;;;;;;35.50;22.13;;;5.30;99.90;;;;;;5015987;28;20639;-85
2024/01/18 10:11:09;;;;;;;34.40;23.02;;;5.10;99.90;;;;;;5020204;28;20305;-84
2024/01/18 10:13:57;;;;;;;31.63;23.40;;;5.10;99.90;;;;;;5019047;28;20243;-82
2024/01/18 10:16:27;;;;;;;31.25;22.02;;;5.10;99.90;;;;;;5018972;28;21144;-83
2024/01/18 10:18:54;;;;;;;31.23;22.52;;;5.10;99.90;;;;;;5019326;28;20282;-84
2024/01/18 10:21:24;;;;;;;27.58;22.00;;;5.20;99.90;;;;;;5048307;22;20226;-85
2024/01/18 10:23:52;;;;;;;31.90;22.13;;;5.20;99.90;;;;;;5015680;28;20649;-87
2024/01/18 10:26:18;;;;;;;31.55;22.13;;;5.20;99.90;;;;;;5015170;28;20692;-85
2024/01/18 10:28:52;;;;;;;30.90;21.53;;;5.20;99.90;;;;;;5016489;28;20203;-86
2024/01/18 10:31:17;;;;;;;29.88;22.00;;;5.30;99.90;;;;;;5011726;28;20704;-87
2024/01/18 10:33:46;;;;;;;32.50;20.60;;;5.30;99.90;;;;;;5013253;28;20238;-88
2024/01/18 10:36:11;;;;;;;38.65;23.50;;;5.30;99.90;;;;;;5010820;28;20624;-89
2024/01/18 10:38:39;;;;;;;30.10;21.87;;;5.30;99.90;;;;;;5010606;28;20191;-87
2024/01/18 10:41:05;;;;;;;35.13;23.40;;;5.30;99.90;;;;;;5008333;28;20249;-87
2024/01/18 10:43:32;;;;;;;34.05;22.20;;;5.30;99.90;;;;;;5013405;28;20175;-89
2024/01/18 10:46:02;;;;;;;30.52;22.60;;;5.30;99.90;;;;;;5011870;28;20195;-87
2024/01/18 10:48:29;;;;;;;32.33;22.73;;;5.40;99.90;;;;;;5006471;28;20188;-87
2024/01/18 10:50:56;;;;;;;31.95;23.40;;;5.30;99.90;;;;;;5002980;28;20686;-86
2024/01/18 10:53:29;;;;;;;35.50;22.80;;;5.30;99.90;;;;;;5013948;28;20191;-87
2024/01/18 10:55:55;;;;;;;28.08;21.88;;;5.10;99.90;;;;;;5003350;28;20644;-86
2024/01/18 10:58:21;;;;;;;34.88;24.17;;;5.00;99.90;;;;;;5012937;28;20561;-88
2024/01/18 11:00:48;;;;;;;36.90;22.30;;;4.90;99.90;;;;;;5016226;28;20183;-86
2024/01/18 11:03:17;;;;;;;35.88;24.15;;;4.80;99.90;;;;;;5018539;28;20230;-86
2024/01/18 11:05:45;;;;;;;40.72;24.55;;;4.70;99.90;;;;;;5016838;28;20176;-86
2024/01/18 11:08:14;;;;;;;32.08;23.67;;;4.70;99.90;;;;;;5014354;28;20180;-88
2024/01/18 11:10:41;;;;;;;38.83;24.77;;;4.60;99.90;;;;;;5014349;28;20211;-86
2024/01/18 11:13:11;;;;;;;33.50;22.90;;;4.50;99.90;;;;;;5014568;28;20194;-87
2024/01/18 11:15:38;;;;;;;37.25;23.15;;;4.50;99.90;;;;;;5012795;28;20187;-86
2024/01/18 11:18:14;;;;;;;37.55;23.58;;;4.50;99.90;;;;;;5011954;28;20175;-87
2024/01/18 11:20:59;;;;;;;33.70;23.40;;;4.50;99.90;;;;;;5009729;28;20187;-88
2024/01/18 11:23:28;;;;;;;36.60;22.88;;;4.60;99.90;;;;;;5011067;28;20246;-86
2024/01/18 11:25:57;;;;;;;38.90;23.58;;;4.60;99.90;;;;;;5013932;28;20567;-86
2024/01/18 11:28:24;;;;;;;33.92;23.30;;;4.60;99.90;;;;;;5011785;28;20268;-85
2024/01/18 11:30:50;;;;;;;39.00;24.13;;;5.10;99.90;;;;;;5013787;28;20207;-87
2024/01/18 11:33:16;;;;;;;34.37;25.03;;;6.20;99.90;;;;;;5012265;28;20474;-88
2024/01/18 11:35:44;;;;;;;35.20;24.40;;;7.40;99.90;;;;;;5006428;28;20434;-86
2024/01/18 11:38:18;;;;;;;37.50;24.47;;;8.80;99.90;;;;;;5013732;28;20187;-87
2024/01/18 11:41:02;;;;;;;40.77;25.03;;;10.10;99.90;;;;;;4997243;28;20439;-87
2024/01/18 11:44:10;;;;;;;38.93;26.83;;;11.20;99.90;;;;;;5011612;28;20438;-87
2024/01/18 11:46:52;;;;;;;31.57;25.60;;;12.10;99.90;;;;;;5004691;28;20442;-87
2024/01/18 11:49:27;;;;;;;36.10;25.57;;;12.80;99.90;;;;;;5010931;28;20551;-87
2024/01/18 11:51:58;;;;;;;33.70;25.30;;;13.40;99.90;;;;;;5008802;28;20991;-87
2024/01/18 11:54:32;;;;;;;35.30;26.10;;;14.20;99.90;;;;;;5011923;28;20664;-87
2024/01/18 11:57:22;;;;;;;31.33;23.73;;;14.80;99.90;;;;;;5009735;28;20430;-88
2024/01/18 11:59:52;;;;;;;33.57;25.47;;;15.50;99.90;;;;;;5006896;28;20427;-87
2024/01/18 12:02:24;;;;;;;30.90;24.20;;;15.80;99.90;;;;;;5011870;28;20454;-87
2024/01/18 12:04:57;;;;;;;36.03;22.90;;;16.40;99.90;;;;;;5006472;28;20497;-87
2024/01/18 12:07:44;;;;;;;31.10;23.77;;;16.60;99.90;;;;;;5013445;28;20878;-87
2024/01/18 12:10:10;;;;;;;27.00;23.47;;;16.90;99.90;;;;;;5010426;28;20503;-85
2024/01/18 12:12:42;;;;;;;33.03;23.93;;;16.60;99.90;;;;;;5010172;28;20469;-85
2024/01/18 12:15:08;;;;;;;31.43;24.20;;;16.70;99.90;;;;;;5001946;28;20431;-87
2024/01/18 12:17:55;;;;;;;30.03;23.77;;;16.80;99.90;;;;;;5009813;28;20435;-86
2024/01/18 12:20:21;;;;;;;26.07;23.30;;;16.50;99.90;;;;;;5020140;28;20445;-89
2024/01/18 12:22:46;;;;;;;31.47;24.20;;;16.60;99.90;;;;;;5011804;28;20481;-86
2024/01/18 12:25:12;;;;;;;25.50;22.17;;;16.40;99.90;;;;;;5009231;28;20194;-87
2024/01/18 12:27:50;;;;;;;31.43;24.33;;;16.20;99.90;;;;;;5012930;28;20274;-86
2024/01/18 12:30:15;;;;;;;30.30;24.50;;;16.00;99.90;;;;;;5010393;28;20448;-89
2024/01/18 12:32:44;;;;;;;30.93;23.67;;;15.80;99.90;;;;;;5012513;28;20486;-86
2024/01/18 12:35:10;;;;;;;26.43;23.60;;;15.70;99.90;;;;;;5006926;28;20255;-86
2024/01/18 12:37:38;;;;;;;26.43;23.40;;;15.30;99.90;;;;;;5012365;28;20480;-87
2024/01/18 12:40:07;;;;;;;34.20;23.77;;;15.00;99.90;;;;;;5010797;28;20187;-86
2024/01/18 12:43:00;;;;;;;26.83;23.27;;;15.20;99.90;;;;;;5011582;28;20458;-87
2024/01/18 12:45:26;;;;;;;26.87;23.97;;;15.20;99.90;;;;;;5009652;28;20861;-86